Etusivu
METAR-TAF:

METAR-TAF

Lentoasemat :

Holland, Michigan, Yhdysvallat

Leveyspiiri: 42-44-46N, Pituuspiiri: 086-05-48W, korkeus merenpinnasta: 209 m

Tämänhetkinen sää

Tämä raportti tehtiin 1 tunti ja 6 minuuttia sitten, kello 19.53 UTC
Tuuli 9 kn pohjoisen/luoteesta puuskistuen 18 kn:hen
Lämpötila 2°C
Kosteus 55%
Ilmanpaine 1024 hPa
Näkyvyys: 16.1 km
Pilvistä 3800 ft:n korkeudessa

METAR: KBIV 061953Z AUTO 34009G18KT 10SM OVC038 02/M06 A3025 RMK AO2 SLP249 T00221061

Aika: 15:59 (20:59 UTC)


TAF: puuttuu

Säähavainnot ja -ennusteet yli 4000 lentoasemalta (METAR- ja TAF-raportit).

Käytössä olevat sääasemat on merkitty karttaan keltaisilla ja punaisilla pisteillä.

Aseta hiiri pisteen päälle nähdäksesi sääaseman nimen.

Klikkaa sitten nähdäksesi säähavainnot ja -ennusteet.

Kartan vaihtaminen: klikkaa mustalla rastilla varustettuja vihreitä pisteitä, niin voit zoomata sisään; viivalla varustettua vihreää pistettä, niin voit zoomata ulos tai vihreitä nuolia, niin pääset viereisille kartoille.


METAR-TAF: